Portada
METAR-TAF:

METAR-TAF

Aeroports :

Hagåtña, Guam, Estats Units d'Amèrica

latitud: 13-29N, longitud: 144-48E, altitud: 91 m

Observació

L'informe es va fer fa 47 minuts, a les 02:54 UTC
Vent 7 kt del Sud-Est, variant entre Est i Sud/Sud-Est
Temperatura 31°C
Humitat 75%
Pressió 1012 hPa
Visibilitat: 16.1 km
Escasses núvols a una alçada de 2500 ft

METAR: PGUM 180254Z 14007KT 100V160 10SM FEW025 31/26 A2989 RMK AO2 SLP115 T03110256 57010

Hora: 13:41 (03:41 UTC)

Pronòstic

L'informe es va fer fa 4 hores i 2 minuts, a les 23:39 UTC
Pronòstic vàlid del 18 a les 00 UTC al 19 a les 06 UTC
Vent 7 kt del Est
Visibilitat: 10 km
Escasses núvols a una alçada de 2000 ft
Núvols disperses a una alçada de 12000 ft
xàfecs en les proximitats

TAF: PGUM 172339Z 1800/1906 10007KT P6SM VCSH FEW020 SCT120

Observacions i pronòstics meteorològics de més de 4000 aeroports (METAR i TAF).

Les estacions disponibles són els punts grocs i vermells al mapa.

Posi el ratolí al punt desitjat per veure el nom de l'estació.

Feu clic per veure les observacions i els pronòstics meteorològics.

Per canviar el mapa: feu clic els botons verds amb una creu de color negre per apropar; al botó verd amb un guió per allunyar la imatge; o en les fletxes verdes per a mapes adjacents.


METAR-TAF: